KJVL/JVL METAR and TAF weather

Enter ICAO airport designator
Station Type Date Time Source
KJVL METAR 2021/01/16 02:45 UTC NOAA

KJVL 160245Z 32005KT 5SM -RA OVC035 01/01 A2958


Station Type Date Time Source
KJVL Decoded METAR 2021/01/16 02:45 UTC NOAA

Janesville / Rock County, WI, United States (KJVL) 42-37N 089-02W
Jan 15, 2021 - 09:45 PM EST / 2021.01.16 0245 UTC
Wind: from the NW (320 degrees) at 6 MPH (5 KT):0
Visibility: 5 mile(s):0
Sky conditions: overcast
Weather: light rain
Temperature: 33 F (1 C)
Windchill: 26 F (-3 C):1
Dew Point: 33 F (1 C)
Relative Humidity: 100%
Pressure (altimeter): 29.58 in. Hg (1001 hPa)
ob: KJVL 160245Z 32005KT 5SM -RA OVC035 01/01 A2958
cycle: 3

Station Type Date Time Source
KJVL TAF 2021/01/16 02:14 UTC NOAA

TAF
AMD KJVL 160213Z 1602/1624 32003KT 3SM -SN SCT018 OVC030
TEMPO 1602/1604 3SM -RASN
FM160500 29004KT 2SM -SN BR BKN018 OVC024
FM161300 33010KT P6SM VCSH OVC008
FM162300 31010KT P6SM BKN010

Example: see airport list